Time;durP1;ratioP1;P1;durP2;ratioP2;P2;SDS_P1;SDS_P2;PMS_P1;PMS_P2;Temp;Humidity;BMP_temperature;BMP_pressure;BME280_temperature;BME280_humidity;BME280_pressure;Samples;Min_cycle;Max_cycle;Signal;HPM_P1;HPM_P2
2022/09/12 00:01:22;;;;;;;26.55;15.20;;;;;;;14.98;100.00;101385.00;5048284;28;20052;-68
2022/09/12 00:03:53;;;;;;;28.70;15.45;;;;;;;15.01;100.00;101391.75;5048928;28;20106;-71
2022/09/12 00:06:23;;;;;;;29.63;14.63;;;;;;;15.02;100.00;101391.34;5052912;28;20503;-71
2022/09/12 00:08:50;;;;;;;27.65;15.02;;;;;;;14.98;100.00;101390.59;5046345;28;20052;-71
2022/09/12 00:11:17;;;;;;;29.30;15.38;;;;;;;14.94;100.00;101386.25;5043147;28;20121;-72
2022/09/12 00:13:44;;;;;;;29.67;15.98;;;;;;;14.80;100.00;101378.81;5048479;28;20871;-71
2022/09/12 00:16:22;;;;;;;32.25;15.98;;;;;;;14.74;100.00;101372.06;5049283;28;20053;-72
2022/09/12 00:18:48;;;;;;;28.10;16.05;;;;;;;14.75;100.00;101370.09;5049653;28;20425;-71
2022/09/12 00:21:17;;;;;;;28.67;16.15;;;;;;;14.72;100.00;101363.31;5047957;28;20528;-74
2022/09/12 00:23:44;;;;;;;28.95;16.80;;;;;;;14.78;100.00;101369.28;5048159;28;20056;-71
2022/09/12 00:26:11;;;;;;;37.72;16.95;;;;;;;14.78;100.00;101372.84;5049531;28;20130;-71
2022/09/12 00:28:39;;;;;;;26.85;15.73;;;;;;;14.76;100.00;101364.13;5050091;28;20121;-72
2022/09/12 00:31:08;;;;;;;28.95;16.60;;;;;;;14.67;100.00;101358.22;5048379;28;20059;-72
2022/09/12 00:33:34;;;;;;;29.48;16.17;;;;;;;14.61;100.00;101359.03;5048933;28;20056;-71
2022/09/12 00:36:07;;;;;;;29.35;16.23;;;;;;;14.60;100.00;101354.69;5047743;28;20048;-72
2022/09/12 00:38:37;;;;;;;31.73;17.27;;;;;;;14.59;100.00;101356.69;5048461;28;20060;-72
2022/09/12 00:41:05;;;;;;;27.25;16.50;;;;;;;14.59;100.00;101358.66;5048113;28;20773;-70
2022/09/12 00:43:40;;;;;;;26.10;15.50;;;;;;;14.50;100.00;101348.00;5049080;28;20059;-71
2022/09/12 00:46:45;;;;;;;30.05;15.95;;;;;;;14.51;100.00;101351.56;5049642;28;20055;-73
2022/09/12 00:49:27;;;;;;;29.92;16.75;;;;;;;14.48;100.00;101344.81;5043498;28;20114;-73
2022/09/12 00:52:02;;;;;;;28.13;16.15;;;;;;;14.49;100.00;101345.63;5045946;28;20048;-72
2022/09/12 00:54:35;;;;;;;;;;;;;;;14.49;100.00;101346.41;5043134;28;20048;-71
2022/09/12 00:57:05;;;;;;;30.70;16.73;;;;;;;14.45;100.00;101340.06;5047589;28;19928;-70
2022/09/12 00:59:37;;;;;;;30.13;15.45;;;;;;;14.29;100.00;101341.75;5049182;28;20048;-71
2022/09/12 01:02:03;;;;;;;30.85;16.95;;;;;;;14.31;100.00;101337.38;5046266;28;20060;-71
2022/09/12 01:04:31;;;;;;;31.08;15.52;;;;;;;14.35;100.00;101335.34;5047043;28;20090;-71
2022/09/12 01:06:57;;;;;;;30.52;16.90;;;;;;;14.35;100.00;101338.13;5047490;28;20052;-72
2022/09/12 01:09:24;;;;;;;31.40;16.77;;;;;;;14.34;100.00;101325.41;5049091;28;20044;-71
2022/09/12 01:11:52;;;;;;;35.25;16.73;;;;;;;14.31;100.00;101326.22;5047262;28;20774;-71
2022/09/12 01:14:19;;;;;;;32.17;17.58;;;;;;;14.32;100.00;101324.25;5047067;28;20110;-71
2022/09/12 01:16:48;;;;;;;31.95;17.50;;;;;;;14.26;100.00;101337.81;5045940;28;20051;-72
2022/09/12 01:19:34;;;;;;;32.10;16.02;;;;;;;14.12;100.00;101342.63;5048277;28;20049;-74
2022/09/12 01:22:00;;;;;;;35.80;18.48;;;;;;;14.16;100.00;101330.28;5048314;28;20048;-71
2022/09/12 01:24:33;;;;;;;30.30;18.10;;;;;;;14.18;100.00;101335.44;5049223;28;20052;-72
2022/09/12 01:27:24;;;;;;;31.75;17.05;;;;;;;14.20;100.00;101333.03;5050305;28;20059;-71
2022/09/12 01:30:21;;;;;;;32.25;15.82;;;;;;;14.12;100.00;101343.44;5049744;28;20111;-72
2022/09/12 01:33:11;;;;;;;28.90;16.98;;;;;;;14.07;100.00;101337.50;5043067;28;20060;-73
2022/09/12 01:35:50;;;;;;;28.77;16.65;;;;;;;14.13;100.00;101333.06;5048816;28;20059;-71
2022/09/12 01:38:43;;;;;;;28.88;15.65;;;;;;;14.18;100.00;101332.66;5045991;28;20052;-71
2022/09/12 01:41:25;;;;;;;27.55;15.23;;;;;;;14.17;100.00;101334.66;5043638;28;20063;-71
2022/09/12 01:44:15;;;;;;;28.58;15.38;;;;;;;14.17;100.00;101328.31;5042873;28;20697;-71
2022/09/12 01:46:53;;;;;;;28.67;15.65;;;;;;;14.16;100.00;101324.72;5040192;28;20050;-70
2022/09/12 01:49:45;;;;;;;31.50;16.38;;;;;;;14.13;100.00;101325.53;5050509;28;20052;-71
2022/09/12 01:52:31;;;;;;;27.17;15.32;;;;;;;14.12;100.00;101326.75;5047489;28;20057;-73
2022/09/12 01:55:09;;;;;;;32.10;16.65;;;;;;;14.09;100.00;101321.97;5052166;28;20067;-74
2022/09/12 01:57:45;;;;;;;29.65;16.13;;;;;;;14.09;100.00;101321.97;5052133;28;20195;-73
2022/09/12 02:00:12;;;;;;;29.45;15.90;;;;;;;14.06;100.00;101320.00;5053712;28;20102;-73
2022/09/12 02:02:51;;;;;;;27.25;16.17;;;;;;;13.97;100.00;101314.09;5056082;28;20060;-71
2022/09/12 02:05:28;;;;;;;32.20;16.75;;;;;;;13.98;100.00;101312.91;5069479;28;20045;-71
2022/09/12 02:08:34;;;;;;;30.90;16.52;;;;;;;13.95;100.00;101310.94;5068196;28;20052;-70
2022/09/12 02:11:08;;;;;;;33.45;18.98;;;;;;;13.95;100.00;101305.38;5032834;28;20114;-72
2022/09/12 02:13:45;;;;;;;30.15;16.52;;;;;;;13.93;100.00;101304.97;5068697;28;20048;-71
2022/09/12 02:16:29;;;;;;;27.77;15.57;;;;;;;13.91;100.00;101299.00;5069602;28;20121;-70
2022/09/12 02:19:06;;;;;;;29.05;15.25;;;;;;;13.92;100.00;101305.38;5062447;28;20865;-71
2022/09/12 02:21:35;;;;;;;31.27;15.70;;;;;;;13.90;100.00;101297.44;5068076;28;20133;-71
2022/09/12 02:24:07;;;;;;;29.48;16.38;;;;;;;13.91;100.00;101304.56;5055411;28;20112;-72
2022/09/12 02:26:40;;;;;;;31.42;15.98;;;;;;;13.88;100.00;101297.06;5068816;28;20424;-73
2022/09/12 02:29:06;;;;;;;29.23;16.40;;;;;;;13.88;100.00;101297.06;5069150;28;20056;-74
2022/09/12 02:31:48;;;;;;;26.80;14.75;;;;;;;13.87;100.00;101306.59;5064771;28;20495;-72
2022/09/12 02:34:38;;;;;;;29.08;16.05;;;;;;;13.87;100.00;101305.81;5069441;28;20078;-72
2022/09/12 02:37:24;;;;;;;33.42;16.80;;;;;;;13.89;100.00;101293.09;5063457;28;20067;-72
2022/09/12 02:39:53;;;;;;;33.85;17.77;;;;;;;13.88;100.00;101302.63;5052669;28;20060;-71
2022/09/12 02:42:21;;;;;;;28.63;15.30;;;;;;;13.84;100.00;101298.28;5068251;28;20040;-71
2022/09/12 02:44:50;;;;;;;33.28;15.57;;;;;;;13.82;100.00;101295.09;5060839;28;20563;-70
2022/09/12 02:47:38;;;;;;;30.42;16.45;;;;;;;13.79;100.00;101290.34;5064170;28;20048;-71
2022/09/12 02:50:06;;;;;;;29.40;15.63;;;;;;;13.79;100.00;101288.38;5063396;28;20057;-73
2022/09/12 02:52:34;;;;;;;30.65;16.83;;;;;;;13.73;100.00;101283.66;5067246;28;20044;-71
2022/09/12 02:55:04;;;;;;;35.28;16.70;;;;;;;13.74;100.00;101286.00;5058241;28;20049;-72
2022/09/12 02:57:30;;;;;;;31.30;16.27;;;;;;;13.71;100.00;101284.03;5063048;28;20425;-71
2022/09/12 03:00:00;;;;;;;32.17;17.02;;;;;;;13.69;100.00;101274.50;5067873;28;20091;-73
2022/09/12 03:03:03;;;;;;;29.33;16.00;;;;;;;13.67;100.00;101279.69;5067663;28;20105;-72
2022/09/12 03:05:46;;;;;;;31.88;16.42;;;;;;;13.64;100.00;101272.97;5057856;28;20064;-72
2022/09/12 03:08:34;;;;;;;29.25;15.30;;;;;;;13.61;100.00;101264.63;5059006;28;20490;-72
2022/09/12 03:11:12;;;;;;;29.20;15.02;;;;;;;13.66;100.00;101272.53;5058826;28;20041;-72
2022/09/12 03:14:00;;;;;;;31.40;16.45;;;;;;;13.65;100.00;101268.97;5061489;28;20567;-73
2022/09/12 03:16:33;;;;;;;30.38;15.55;;;;;;;13.55;100.00;101272.59;5053895;28;20045;-72
2022/09/12 03:19:31;;;;;;;30.40;16.92;;;;;;;13.57;100.00;101272.97;5068144;28;20048;-72
2022/09/12 03:22:16;;;;;;;28.23;15.93;;;;;;;13.57;100.00;101272.97;5055798;28;20068;-70
2022/09/12 03:25:13;;;;;;;34.30;16.85;;;;;;;13.56;100.00;101274.16;5061423;28;20044;-72
2022/09/12 03:28:04;;;;;;;34.03;17.08;;;;;;;13.52;100.00;101276.19;5058558;28;20045;-72
2022/09/12 03:30:37;;;;;;;30.88;17.25;;;;;;;13.52;100.00;101276.19;5058536;28;20056;-72
2022/09/12 03:33:04;;;;;;;30.17;16.25;;;;;;;13.50;100.00;101270.22;5067500;28;20140;-70
2022/09/12 03:35:30;;;;;;;32.60;16.30;;;;;;;13.50;100.00;101267.44;5061189;28;20060;-71
2022/09/12 03:37:57;;;;;;;32.85;16.58;;;;;;;13.54;100.00;101268.25;5062788;28;20303;-71
2022/09/12 03:40:23;;;;;;;30.10;15.98;;;;;;;13.52;100.00;101265.06;5056437;28;20057;-72
2022/09/12 03:42:50;;;;;;;28.88;15.43;;;;;;;13.50;100.00;101261.09;5067415;28;20115;-71
2022/09/12 03:45:16;;;;;;;29.48;15.10;;;;;;;13.51;100.00;101268.25;5062967;28;20082;-71
2022/09/12 03:47:43;;;;;;;30.20;17.27;;;;;;;13.41;100.00;101264.31;5063641;28;20494;-71
2022/09/12 03:50:09;;;;;;;32.42;16.42;;;;;;;13.41;100.00;101271.84;5066703;28;20466;-72
2022/09/12 03:52:36;;;;;;;38.70;16.15;;;;;;;13.40;100.00;101262.72;5066574;28;20071;-73
2022/09/12 03:55:03;;;;;;;29.77;16.25;;;;;;;13.39;100.00;101266.69;5056453;28;20048;-72
2022/09/12 03:57:29;;;;;;;31.95;17.20;;;;;;;13.39;100.00;101266.69;5059785;28;20052;-72
2022/09/12 03:59:56;;;;;;;33.08;15.77;;;;;;;13.41;100.00;101266.28;5057952;28;20056;-72
2022/09/12 04:02:22;;;;;;;31.67;16.45;;;;;;;13.43;100.00;101263.91;5055572;28;20045;-70
2022/09/12 04:04:49;;;;;;;32.92;17.90;;;;;;;13.42;100.00;101274.22;5056660;28;20061;-71
2022/09/12 04:07:15;;;;;;;31.77;17.45;;;;;;;13.32;100.00;101260.34;5057698;28;20493;-72
2022/09/12 04:09:42;;;;;;;31.30;15.80;;;;;;;13.32;100.00;101263.94;5053371;28;20605;-72
2022/09/12 04:12:09;;;;;;;34.17;15.90;;;;;;;13.32;100.00;101266.72;5064216;28;20057;-72
2022/09/12 04:14:35;;;;;;;30.45;15.70;;;;;;;13.31;100.00;101262.38;5059048;28;20049;-71
2022/09/12 04:17:02;;;;;;;29.65;14.85;;;;;;;13.33;100.00;101259.19;5061853;28;20497;-68
2022/09/12 04:19:28;;;;;;;31.98;16.70;;;;;;;13.31;100.00;101264.34;5056265;28;20055;-71
2022/09/12 04:21:55;;;;;;;30.85;15.80;;;;;;;13.28;100.00;101260.38;5062773;28;20049;-71
2022/09/12 04:24:21;;;;;;;30.23;16.10;;;;;;;13.24;100.00;101264.38;5056736;28;20048;-69
2022/09/12 04:26:48;;;;;;;29.73;15.95;;;;;;;13.19;100.00;101257.22;5060989;28;20044;-71
2022/09/12 04:29:14;;;;;;;29.15;16.15;;;;;;;13.14;100.00;101260.44;5055606;28;20525;-71
2022/09/12 04:31:41;;;;;;;33.65;16.60;;;;;;;13.15;100.00;101262.00;5061448;28;20052;-70
2022/09/12 04:34:08;;;;;;;30.80;16.38;;;;;;;13.15;100.00;101256.47;5060980;28;20048;-73
2022/09/12 04:36:35;;;;;;;30.08;14.63;;;;;;;13.16;100.00;101255.25;5059842;28;20048;-71
2022/09/12 04:39:05;;;;;;;31.52;15.75;;;;;;;13.18;100.00;101255.66;5067588;28;20424;-70
2022/09/12 04:41:35;;;;;;;32.92;15.15;;;;;;;13.19;100.00;101246.13;5066551;28;20554;-70
2022/09/12 04:44:07;;;;;;;34.88;16.30;;;;;;;13.17;100.00;101256.06;5067232;28;20113;-71
2022/09/12 04:46:37;;;;;;;32.72;16.08;;;;;;;13.13;100.00;101256.06;5060337;28;20082;-73
2022/09/12 04:49:04;;;;;;;28.20;15.00;;;;;;;13.14;100.00;101254.88;5062588;28;20048;-71
2022/09/12 04:51:34;;;;;;;31.33;16.65;;;;;;;13.10;100.00;101254.09;5063606;28;20051;-72
2022/09/12 04:54:13;;;;;;;29.90;14.90;;;;;;;13.00;100.00;101252.16;5066506;28;20090;-72
2022/09/12 04:56:42;;;;;;;34.20;15.95;;;;;;;12.97;100.00;101261.25;5064387;28;20057;-72
2022/09/12 04:59:10;;;;;;;31.20;16.15;;;;;;;12.98;100.00;101246.16;5066503;28;20050;-72
2022/09/12 05:01:36;;;;;;;29.17;15.68;;;;;;;13.01;100.00;101248.16;5065643;28;20429;-71
2022/09/12 05:04:03;;;;;;;27.92;13.75;;;;;;;13.01;100.00;101239.84;5067045;28;20127;-72
2022/09/12 05:06:35;;;;;;;28.35;15.10;;;;;;;13.02;100.00;101233.06;5065434;28;20044;-72
2022/09/12 05:09:04;;;;;;;31.83;17.52;;;;;;;13.02;100.00;101241.41;5066555;28;20056;-72
2022/09/12 05:11:36;;;;;;;30.70;15.18;;;;;;;12.92;100.00;101231.88;5051922;28;20048;-70
2022/09/12 05:14:23;;;;;;;29.30;16.23;;;;;;;12.92;100.00;101217.19;5056598;28;20048;-70
2022/09/12 05:16:49;;;;;;;28.85;15.70;;;;;;;13.01;100.00;101223.16;5062010;28;20424;-71
2022/09/12 05:19:16;;;;;;;29.25;16.50;;;;;;;13.03;100.00;101227.13;5061819;28;20103;-70
2022/09/12 05:21:43;;;;;;;30.70;16.42;;;;;;;13.00;100.00;101227.91;5059676;28;20044;-72
2022/09/12 05:24:10;;;;;;;30.83;16.35;;;;;;;13.06;100.00;101230.31;5070351;28;20512;-71
2022/09/12 05:26:37;;;;;;;32.95;16.08;;;;;;;13.13;100.00;101233.81;5070286;28;20044;-72
2022/09/12 05:29:04;;;;;;;31.77;16.38;;;;;;;13.16;100.00;101221.13;5069222;28;20488;-71
2022/09/12 05:31:30;;;;;;;29.33;15.85;;;;;;;13.21;100.00;101227.06;5056192;28;20057;-71
2022/09/12 05:33:56;;;;;;;37.30;17.60;;;;;;;13.24;100.00;101223.50;5068172;28;20056;-72
2022/09/12 05:36:26;;;;;;;30.17;16.75;;;;;;;13.31;100.00;101231.00;5067728;28;20618;-69
2022/09/12 05:38:53;;;;;;;30.58;15.43;;;;;;;13.31;100.00;101226.25;5068654;28;20048;-72
2022/09/12 05:41:23;;;;;;;30.10;17.23;;;;;;;13.36;100.00;101225.81;5061028;28;20095;-70
2022/09/12 05:43:59;;;;;;;28.42;14.98;;;;;;;13.44;100.00;101226.56;5066306;28;20053;-71
2022/09/12 05:46:28;;;;;;;30.35;15.85;;;;;;;13.47;100.00;101228.53;5061991;28;20045;-71
2022/09/12 05:48:57;;;;;;;27.10;14.82;;;;;;;13.50;100.00;101222.97;5061124;28;20574;-70
2022/09/12 05:51:26;;;;;;;30.27;17.08;;;;;;;13.52;100.00;101231.69;5068820;28;20374;-71
2022/09/12 05:53:58;;;;;;;32.88;16.45;;;;;;;13.62;100.00;101225.28;5062748;28;20140;-71
2022/09/12 05:56:27;;;;;;;33.88;15.40;;;;;;;13.71;100.00;101224.84;5066589;28;20056;-71
2022/09/12 05:58:56;;;;;;;27.88;15.27;;;;;;;13.79;100.00;101229.94;5069408;28;20466;-73
2022/09/12 06:01:23;;;;;;;33.67;17.73;;;;;;;13.88;100.00;101233.09;5068263;28;20070;-72
2022/09/12 06:03:51;;;;;;;32.25;16.50;;;;;;;13.98;100.00;101237.00;5070366;28;20071;-72
2022/09/12 06:06:21;;;;;;;28.00;15.70;;;;;;;14.05;100.00;101234.97;5068832;28;20044;-72
2022/09/12 06:08:50;;;;;;;32.13;16.20;;;;;;;14.15;100.00;101236.88;5070011;28;20044;-70
2022/09/12 06:11:20;;;;;;;31.13;17.52;;;;;;;14.26;100.00;101248.75;5064980;28;20114;-72
2022/09/12 06:13:46;;;;;;;34.13;17.00;;;;;;;14.38;100.00;101247.47;5061382;28;20149;-69
2022/09/12 06:16:21;;;;;;;33.40;17.20;;;;;;;14.49;100.00;101245.38;5067755;28;20040;-71
2022/09/12 06:18:50;;;;;;;32.58;17.27;;;;;;;14.62;100.00;101252.03;5068055;28;20048;-72
2022/09/12 06:21:17;;;;;;;34.63;17.40;;;;;;;14.72;100.00;101243.53;5067527;28;20543;-72
2022/09/12 06:23:45;;;;;;;34.42;16.63;;;;;;;14.86;100.00;101245.41;5064643;28;20052;-72
2022/09/12 06:26:12;;;;;;;33.33;17.60;;;;;;;14.97;100.00;101243.31;5064756;28;20059;-72
2022/09/12 06:28:40;;;;;;;33.70;17.63;;;;;;;15.07;100.00;101246.00;5060891;28;20055;-69
2022/09/12 06:31:16;;;;;;;31.05;16.45;;;;;;;15.16;100.00;101253.84;5057930;28;20053;-68
2022/09/12 06:33:43;;;;;;;;;;;;;;;15.28;100.00;101245.75;5067634;28;20076;-69
2022/09/12 06:36:16;;;;;;;32.90;15.98;;;;;;;15.34;100.00;101243.28;5062807;28;20323;-69
2022/09/12 06:38:47;;;;;;;31.42;17.48;;;;;;;15.38;100.00;101233.69;5065090;28;20043;-69
2022/09/12 06:41:14;;;;;;;33.33;16.50;;;;;;;15.49;100.00;101237.13;5066070;28;20060;-68
2022/09/12 06:43:41;;;;;;;34.75;17.35;;;;;;;15.57;100.00;101238.59;5066841;28;20459;-69
2022/09/12 06:46:09;;;;;;;33.05;19.20;;;;;;;15.66;100.00;101242.91;5059758;28;20049;-67
2022/09/12 06:48:36;;;;;;;32.47;16.90;;;;;;;15.75;100.00;101234.78;5066448;28;20040;-68
2022/09/12 06:51:13;;;;;;;32.25;16.83;;;;;;;15.84;100.00;101238.66;5067699;28;20057;-69
2022/09/12 06:53:41;;;;;;;34.03;16.73;;;;;;;15.93;100.00;101233.31;5066213;28;20052;-68
2022/09/12 06:56:27;;;;;;;32.40;16.90;;;;;;;16.06;100.00;101242.69;5067240;28;20057;-67
2022/09/12 06:58:56;;;;;;;34.47;16.85;;;;;;;16.16;100.00;101240.97;5066949;28;20105;-68
2022/09/12 07:01:25;;;;;;;34.97;18.27;;;;;;;16.26;100.00;101226.06;5066693;28;20052;-68
2022/09/12 07:03:58;;;;;;;30.10;16.33;;;;;;;16.37;100.00;101233.03;5065991;28;20040;-69
2022/09/12 07:06:31;;;;;;;33.00;17.17;;;;;;;16.48;100.00;101236.47;5066971;28;20122;-69
2022/09/12 07:08:59;;;;;;;34.13;18.08;;;;;;;16.59;100.00;101237.06;5063531;28;20555;-68
2022/09/12 07:11:30;;;;;;;36.15;17.25;;;;;;;16.71;100.00;101235.69;5063506;28;20102;-69
2022/09/12 07:13:58;;;;;;;30.13;16.90;;;;;;;16.81;100.00;101237.50;5067837;28;20056;-68
2022/09/12 07:16:25;;;;;;;29.00;15.00;;;;;;;16.90;100.00;101241.31;5067033;28;20044;-69
2022/09/12 07:19:00;;;;;;;29.70;17.38;;;;;;;17.01;100.00;101239.09;5066437;28;20113;-68
2022/09/12 07:21:27;;;;;;;30.40;16.90;;;;;;;17.10;100.00;101238.53;5066631;28;20052;-68
2022/09/12 07:23:56;;;;;;;30.30;16.90;;;;;;;17.20;100.00;101246.72;5065832;28;20052;-66
2022/09/12 07:26:25;;;;;;;30.15;16.88;;;;;;;17.29;100.00;101246.13;5067431;28;20056;-66
2022/09/12 07:28:54;;;;;;;31.35;17.20;;;;;;;17.37;100.00;101242.75;5063156;28;20052;-69
2022/09/12 07:31:38;;;;;;;30.38;17.00;;;;;;;17.46;100.00;101245.00;5063691;28;20503;-68
2022/09/12 07:34:05;;;;;;;32.08;15.95;;;;;;;17.55;100.00;101234.03;5064828;28;20098;-68
2022/09/12 07:36:32;;;;;;;31.83;16.10;;;;;;;17.62;100.00;101234.66;5058628;28;20180;-67
2022/09/12 07:38:59;;;;;;;37.15;17.02;;;;;;;17.70;100.00;101227.69;5060344;28;20055;-69
2022/09/12 07:41:27;;;;;;;30.95;16.77;;;;;;;17.77;100.00;101227.53;5064391;28;20047;-69
2022/09/12 07:43:56;;;;;;;29.35;17.35;;;;;;;17.85;100.00;101219.75;5066968;28;20484;-68
2022/09/12 07:46:23;;;;;;;30.10;15.20;;;;;;;17.94;100.00;101225.56;5067605;28;20048;-70
2022/09/12 07:48:55;;;;;;;29.58;16.83;;;;;;;18.02;100.00;101224.16;5068059;28;20052;-68
2022/09/12 07:51:23;;;;;;;30.30;15.00;;;;;;;18.08;100.00;101230.81;5064600;28;20349;-68
2022/09/12 07:53:50;;;;;;;27.95;14.93;;;;;;;18.16;100.00;101232.25;5060737;28;20053;-69
2022/09/12 07:56:21;;;;;;;32.20;16.85;;;;;;;18.26;100.00;101233.19;5066345;28;20067;-68
2022/09/12 07:58:55;;;;;;;34.13;15.63;;;;;;;18.34;100.00;101231.78;5059649;28;20501;-67
2022/09/12 08:01:22;;;;;;;32.35;16.98;;;;;;;18.42;100.00;101227.63;5061974;28;20055;-69
2022/09/12 08:03:53;;;;;;;31.95;15.85;;;;;;;18.51;100.00;101234.19;5064765;28;20148;-69
2022/09/12 08:06:22;;;;;;;33.22;16.27;;;;;;;18.61;100.00;101229.53;5062861;28;20052;-69
2022/09/12 08:08:50;;;;;;;28.17;15.63;;;;;;;18.66;100.00;101234.63;5048730;28;20056;-69
2022/09/12 08:11:19;;;;;;;27.63;15.40;;;;;;;18.74;100.00;101238.81;5064117;28;20057;-67
2022/09/12 08:13:46;;;;;;;28.58;15.20;;;;;;;18.81;100.00;101239.41;5064453;28;20056;-69
2022/09/12 08:16:21;;;;;;;31.33;14.65;;;;;;;18.87;100.00;101243.22;5065038;28;20060;-68
2022/09/12 08:18:49;;;;;;;26.45;15.13;;;;;;;18.95;100.00;101247.44;5045520;28;20079;-66
2022/09/12 08:21:21;;;;;;;30.20;15.90;;;;;;;19.03;100.00;101245.25;5059868;28;20429;-66
2022/09/12 08:23:52;;;;;;;31.15;15.52;;;;;;;19.12;100.00;101248.16;5061604;28;21937;-67
2022/09/12 08:26:19;;;;;;;27.38;14.32;;;;;;;19.18;100.00;101247.19;5063099;28;20155;-68
2022/09/12 08:28:46;;;;;;;28.70;14.15;;;;;;;19.25;100.00;101246.22;5068061;28;20102;-68
2022/09/12 08:31:15;;;;;;;29.20;14.65;;;;;;;19.33;100.00;101251.19;5063750;28;20120;-68
2022/09/12 08:33:42;;;;;;;27.88;15.00;;;;;;;19.38;100.00;101239.44;5064637;28;20060;-68
2022/09/12 08:36:18;;;;;;;29.27;16.00;;;;;;;19.44;100.00;101243.25;5065973;28;20049;-68
2022/09/12 08:38:47;;;;;;;28.20;14.23;;;;;;;19.55;100.00;101237.34;5062682;28;20049;-67
2022/09/12 08:41:27;;;;;;;29.73;14.85;;;;;;;19.61;100.00;101241.19;5061438;28;20059;-67
2022/09/12 08:44:02;;;;;;;28.75;14.77;;;;;;;19.69;100.00;101237.72;5064505;28;20059;-67
2022/09/12 08:46:38;;;;;;;25.90;14.60;;;;;;;19.78;100.00;101232.19;5065199;28;20067;-67
2022/09/12 08:49:11;;;;;;;27.27;14.10;;;;;;;19.85;100.00;101229.16;5063630;28;20081;-68
2022/09/12 08:51:38;;;;;;;27.02;14.82;;;;;;;19.96;100.00;101240.88;5063769;28;20052;-66
2022/09/12 08:54:18;;;;;;;30.67;15.65;;;;;;;20.08;100.00;101231.66;5062324;28;20060;-66
2022/09/12 08:56:45;;;;;;;26.77;14.93;;;;;;;20.24;100.00;101225.94;5041863;28;20055;-67
2022/09/12 08:59:12;;;;;;;27.25;14.88;;;;;;;20.38;100.00;101225.47;5037281;28;20048;-68
2022/09/12 09:01:44;;;;;;;27.80;12.48;;;;;;;20.58;100.00;101230.06;5042918;28;20071;-70
2022/09/12 09:04:29;;;;;;;24.90;13.40;;;;;;;20.77;100.00;101226.97;5035889;28;20428;-68
2022/09/12 09:07:14;;;;;;;27.93;13.90;;;;;;;20.94;100.00;101228.41;5036938;28;20333;-68
2022/09/12 09:10:15;;;;;;;29.45;13.10;;;;;;;21.04;100.00;101230.03;5042861;28;22053;-68
2022/09/12 09:12:50;;;;;;;23.50;11.65;;;;;;;20.96;100.00;101225.13;5039492;28;20056;-67
2022/09/12 09:15:39;;;;;;;25.42;13.55;;;;;;;21.08;100.00;101236.31;5044378;28;20044;-68
2022/09/12 09:18:30;;;;;;;23.92;11.88;;;;;;;21.15;100.00;101232.47;5046055;28;20759;-68
2022/09/12 09:21:16;;;;;;;23.10;11.05;;;;;;;21.17;100.00;101227.16;5046517;28;20056;-67
2022/09/12 09:23:48;;;;;;;24.50;11.32;;;;;;;21.25;100.00;101220.03;5047208;28;20058;-70
2022/09/12 09:26:26;;;;;;;23.42;10.68;;;;;;;21.42;100.00;101229.84;5048230;28;20052;-67
2022/09/12 09:29:00;;;;;;;18.95;8.30;;;;;;;21.30;100.00;101225.09;5045923;28;20056;-66
2022/09/12 09:31:32;;;;;;;17.88;5.85;;;;;;;21.41;100.00;101217.03;5046803;28;20738;-70
2022/09/12 09:33:59;;;;;;;18.63;8.32;;;;;;;21.61;100.00;101217.47;5048101;28;20067;-67
2022/09/12 09:36:44;;;;;;;18.67;9.13;;;;;;;21.64;100.00;101219.34;5047659;28;20048;-71
2022/09/12 09:39:29;;;;;;;19.67;7.27;;;;;;;21.69;100.00;101216.72;5044863;28;20083;-71
2022/09/12 09:42:08;;;;;;;20.30;9.75;;;;;;;21.96;100.00;101216.09;5046501;28;20075;-69
2022/09/12 09:44:35;;;;;;;16.23;8.57;;;;;;;22.21;100.00;101216.66;5048416;28;20059;-69
2022/09/12 09:47:02;;;;;;;17.52;9.13;;;;;;;22.38;100.00;101217.19;5046167;28;20056;-70
2022/09/12 09:49:32;;;;;;;15.93;8.40;;;;;;;22.41;100.00;101213.44;5047745;28;20086;-69
2022/09/12 09:52:02;;;;;;;19.15;8.60;;;;;;;22.29;100.00;101209.50;5044582;28;20052;-67
2022/09/12 09:54:36;;;;;;;15.95;8.20;;;;;;;22.38;100.00;101201.03;5047239;28;20063;-69
2022/09/12 09:57:03;;;;;;;16.70;7.57;;;;;;;22.47;100.00;101203.88;5047328;28;20102;-68
2022/09/12 09:59:35;;;;;;;17.65;9.07;;;;;;;22.66;100.00;101205.53;5048414;28;20060;-68
2022/09/12 10:02:24;;;;;;;16.63;8.60;;;;;;;22.77;100.00;101201.44;5037854;28;20704;-69
2022/09/12 10:04:58;;;;;;;15.93;7.03;;;;;;;22.83;100.00;101197.53;5038698;28;20135;-69
2022/09/12 10:07:25;;;;;;;16.27;8.23;;;;;;;23.08;100.00;101196.44;5048884;28;20044;-68
2022/09/12 10:10:17;;;;;;;15.07;7.85;;;;;;;23.10;98.17;101206.00;5056068;28;20452;-68
2022/09/12 10:12:44;;;;;;;19.17;8.70;;;;;;;23.29;100.00;101195.50;5049065;28;20044;-69
2022/09/12 10:15:18;;;;;;;12.80;5.53;;;;;;;23.24;94.22;101193.28;5051805;28;20056;-69
2022/09/12 10:17:48;;;;;;;17.07;8.27;;;;;;;23.49;96.67;101182.41;5051401;28;20052;-69
2022/09/12 10:20:39;;;;;;;15.30;6.80;;;;;;;23.43;93.29;101183.53;5051281;28;20908;-69
2022/09/12 10:23:29;;;;;;;7.97;2.88;;;;;;;23.44;87.06;101182.25;5048424;28;20056;-69
2022/09/12 10:26:00;;;;;;;14.43;6.47;;;;;;;23.65;85.43;101184.13;5050612;28;20052;-70
2022/09/12 10:28:38;;;;;;;18.10;6.88;;;;;;;23.76;84.88;101178.72;5051762;28;20049;-69
2022/09/12 10:31:08;;;;;;;7.95;3.47;;;;;;;23.75;83.86;101182.78;5047610;28;20061;-70
2022/09/12 10:33:46;;;;;;;14.00;6.03;;;;;;;23.64;83.78;101174.84;5051294;28;20048;-70
2022/09/12 10:36:14;;;;;;;7.63;2.97;;;;;;;23.71;79.29;101180.16;5049370;28;20056;-70
2022/09/12 10:38:52;;;;;;;11.55;5.57;;;;;;;23.95;79.58;101166.09;5052063;28;20049;-68
2022/09/12 10:41:20;;;;;;;18.02;6.68;;;;;;;24.16;81.03;101159.41;5042889;28;20048;-69
2022/09/12 10:43:47;;;;;;;10.40;5.15;;;;;;;24.23;78.46;101164.72;5049523;28;20057;-70
2022/09/12 10:46:16;;;;;;;14.27;5.25;;;;;;;24.22;74.65;101161.09;5050370;28;20134;-70
2022/09/12 10:48:48;;;;;;;11.48;4.57;;;;;;;24.44;76.41;101160.78;5050673;28;20695;-69
2022/09/12 10:51:23;;;;;;;13.48;5.57;;;;;;;24.65;77.00;101151.22;5046227;28;20049;-69
2022/09/12 10:54:01;;;;;;;9.52;4.22;;;;;;;24.77;74.32;101150.97;5047465;28;20048;-70
2022/09/12 10:56:46;;;;;;;17.80;5.50;;;;;;;24.92;75.46;101151.00;5046534;28;20056;-70
2022/09/12 10:59:33;;;;;;;9.85;4.30;;;;;;;25.18;75.75;101144.28;5046009;28;20049;-70
2022/09/12 11:02:13;;;;;;;8.10;4.10;;;;;;;25.45;74.09;101142.47;5048741;28;20048;-69
2022/09/12 11:04:52;;;;;;;8.18;4.22;;;;;;;25.73;73.26;101143.69;5049659;28;20076;-70
2022/09/12 11:07:45;;;;;;;13.27;4.22;;;;;;;25.46;67.43;101135.50;5048700;28;20049;-70
2022/09/12 11:10:12;;;;;;;7.40;3.28;;;;;;;25.43;66.96;101133.66;5046820;28;20049;-70
2022/09/12 11:12:52;;;;;;;10.18;4.45;;;;;;;25.68;67.73;101136.66;5049477;28;20061;-69
2022/09/12 11:15:39;;;;;;;5.93;3.42;;;;;;;25.87;62.13;101134.38;5049213;28;20049;-70
2022/09/12 11:18:22;;;;;;;5.63;3.05;;;;;;;25.99;62.76;101114.25;5049257;28;20045;-70
2022/09/12 11:21:15;;;;;;;3.97;2.63;;;;;;;25.94;59.24;101131.13;5042611;28;20938;-70
2022/09/12 11:24:17;;;;;;;12.90;3.45;;;;;;;26.19;59.20;101119.16;5048489;28;20044;-70
2022/09/12 11:26:58;;;;;;;7.05;2.75;;;;;;;26.30;57.27;101120.06;5040653;28;20044;-67
2022/09/12 11:29:25;;;;;;;2.47;1.88;;;;;;;25.97;56.67;101121.66;5048635;28;20867;-70
2022/09/12 11:31:54;;;;;;;4.88;2.28;;;;;;;25.95;57.85;101110.03;5047531;28;20095;-69